sensor_id;sensor_type;location;lat;lon;timestamp;P1;durP1;ratioP1;P2;durP2;ratioP2
8889;SDS011;4481;43.406;24.454;2023-04-06T00:01:42;6.93;;;6.33;;
8889;SDS011;4481;43.406;24.454;2023-04-06T00:04:08;7.90;;;6.63;;
8889;SDS011;4481;43.406;24.454;2023-04-06T00:06:35;10.87;;;7.10;;
8889;SDS011;4481;43.406;24.454;2023-04-06T00:09:02;8.10;;;6.80;;
8889;SDS011;4481;43.406;24.454;2023-04-06T00:11:28;8.27;;;6.00;;
8889;SDS011;4481;43.406;24.454;2023-04-06T00:13:54;7.00;;;5.97;;
8889;SDS011;4481;43.406;24.454;2023-04-06T00:16:20;6.03;;;5.27;;
8889;SDS011;4481;43.406;24.454;2023-04-06T00:18:47;8.13;;;6.40;;
8889;SDS011;4481;43.406;24.454;2023-04-06T00:21:13;6.43;;;5.83;;
8889;SDS011;4481;43.406;24.454;2023-04-06T00:23:40;7.67;;;5.83;;
8889;SDS011;4481;43.406;24.454;2023-04-06T00:26:07;7.43;;;6.50;;
8889;SDS011;4481;43.406;24.454;2023-04-06T00:28:34;7.37;;;6.00;;
8889;SDS011;4481;43.406;24.454;2023-04-06T00:31:00;6.80;;;6.10;;
8889;SDS011;4481;43.406;24.454;2023-04-06T00:33:26;10.07;;;6.60;;
8889;SDS011;4481;43.406;24.454;2023-04-06T00:35:53;7.20;;;5.77;;
8889;SDS011;4481;43.406;24.454;2023-04-06T00:38:19;7.60;;;6.57;;
8889;SDS011;4481;43.406;24.454;2023-04-06T00:40:46;8.07;;;6.83;;
8889;SDS011;4481;43.406;24.454;2023-04-06T00:43:12;6.93;;;5.93;;
8889;SDS011;4481;43.406;24.454;2023-04-06T00:45:39;7.63;;;6.53;;
8889;SDS011;4481;43.406;24.454;2023-04-06T00:48:07;6.97;;;6.27;;
8889;SDS011;4481;43.406;24.454;2023-04-06T00:50:33;10.50;;;6.43;;
8889;SDS011;4481;43.406;24.454;2023-04-06T00:53:00;8.33;;;6.40;;
8889;SDS011;4481;43.406;24.454;2023-04-06T00:55:27;7.53;;;6.80;;
8889;SDS011;4481;43.406;24.454;2023-04-06T00:57:54;7.67;;;6.87;;
8889;SDS011;4481;43.406;24.454;2023-04-06T01:00:24;7.03;;;5.63;;
8889;SDS011;4481;43.406;24.454;2023-04-06T01:02:50;7.47;;;6.67;;
8889;SDS011;4481;43.406;24.454;2023-04-06T01:05:17;8.63;;;6.50;;
8889;SDS011;4481;43.406;24.454;2023-04-06T01:07:43;7.53;;;6.27;;
8889;SDS011;4481;43.406;24.454;2023-04-06T01:10:09;7.03;;;5.90;;
8889;SDS011;4481;43.406;24.454;2023-04-06T01:12:35;7.70;;;6.20;;
8889;SDS011;4481;43.406;24.454;2023-04-06T01:15:03;8.67;;;6.93;;
8889;SDS011;4481;43.406;24.454;2023-04-06T01:17:31;7.67;;;6.70;;
8889;SDS011;4481;43.406;24.454;2023-04-06T01:19:57;7.87;;;6.23;;
8889;SDS011;4481;43.406;24.454;2023-04-06T01:22:24;7.27;;;6.17;;
8889;SDS011;4481;43.406;24.454;2023-04-06T01:24:50;8.27;;;7.13;;
8889;SDS011;4481;43.406;24.454;2023-04-06T01:27:17;7.87;;;7.07;;
8889;SDS011;4481;43.406;24.454;2023-04-06T01:29:43;7.47;;;6.47;;
8889;SDS011;4481;43.406;24.454;2023-04-06T01:32:09;9.67;;;6.40;;
8889;SDS011;4481;43.406;24.454;2023-04-06T01:34:35;7.80;;;6.67;;
8889;SDS011;4481;43.406;24.454;2023-04-06T01:37:02;7.93;;;7.10;;
8889;SDS011;4481;43.406;24.454;2023-04-06T01:39:29;8.83;;;6.93;;
8889;SDS011;4481;43.406;24.454;2023-04-06T01:41:55;8.10;;;7.27;;
8889;SDS011;4481;43.406;24.454;2023-04-06T01:44:22;9.47;;;7.43;;
8889;SDS011;4481;43.406;24.454;2023-04-06T01:46:48;10.10;;;7.83;;
8889;SDS011;4481;43.406;24.454;2023-04-06T01:49:14;9.23;;;7.60;;
8889;SDS011;4481;43.406;24.454;2023-04-06T01:51:40;13.17;;;8.70;;
8889;SDS011;4481;43.406;24.454;2023-04-06T01:54:07;8.23;;;6.50;;
8889;SDS011;4481;43.406;24.454;2023-04-06T01:56:33;9.30;;;7.17;;
8889;SDS011;4481;43.406;24.454;2023-04-06T01:59:00;10.87;;;8.03;;
8889;SDS011;4481;43.406;24.454;2023-04-06T02:01:26;10.07;;;7.63;;
8889;SDS011;4481;43.406;24.454;2023-04-06T02:03:52;8.57;;;7.40;;
8889;SDS011;4481;43.406;24.454;2023-04-06T02:06:19;11.03;;;7.60;;
8889;SDS011;4481;43.406;24.454;2023-04-06T02:08:45;10.10;;;8.00;;
8889;SDS011;4481;43.406;24.454;2023-04-06T02:11:12;8.37;;;6.57;;
8889;SDS011;4481;43.406;24.454;2023-04-06T02:13:38;8.40;;;7.23;;
8889;SDS011;4481;43.406;24.454;2023-04-06T02:16:05;8.67;;;6.90;;
8889;SDS011;4481;43.406;24.454;2023-04-06T02:18:31;10.10;;;7.93;;
8889;SDS011;4481;43.406;24.454;2023-04-06T02:20:57;10.20;;;7.80;;
8889;SDS011;4481;43.406;24.454;2023-04-06T02:23:24;9.87;;;7.97;;
8889;SDS011;4481;43.406;24.454;2023-04-06T02:25:50;9.83;;;8.37;;
8889;SDS011;4481;43.406;24.454;2023-04-06T02:28:16;13.20;;;7.83;;
8889;SDS011;4481;43.406;24.454;2023-04-06T02:30:43;8.13;;;7.20;;
8889;SDS011;4481;43.406;24.454;2023-04-06T02:33:09;9.63;;;8.13;;
8889;SDS011;4481;43.406;24.454;2023-04-06T02:35:36;11.10;;;8.20;;
8889;SDS011;4481;43.406;24.454;2023-04-06T02:38:02;10.30;;;7.50;;
8889;SDS011;4481;43.406;24.454;2023-04-06T02:40:28;9.03;;;8.13;;
8889;SDS011;4481;43.406;24.454;2023-04-06T02:42:54;10.03;;;7.97;;
8889;SDS011;4481;43.406;24.454;2023-04-06T02:45:21;12.23;;;8.30;;
8889;SDS011;4481;43.406;24.454;2023-04-06T02:47:48;14.53;;;10.53;;
8889;SDS011;4481;43.406;24.454;2023-04-06T02:50:14;10.80;;;9.23;;
8889;SDS011;4481;43.406;24.454;2023-04-06T02:52:41;12.27;;;9.60;;
8889;SDS011;4481;43.406;24.454;2023-04-06T02:55:07;10.40;;;8.27;;
8889;SDS011;4481;43.406;24.454;2023-04-06T02:57:34;8.33;;;7.53;;
8889;SDS011;4481;43.406;24.454;2023-04-06T03:00:00;9.33;;;7.87;;
8889;SDS011;4481;43.406;24.454;2023-04-06T03:02:26;13.07;;;8.27;;
8889;SDS011;4481;43.406;24.454;2023-04-06T03:04:53;10.87;;;8.77;;
8889;SDS011;4481;43.406;24.454;2023-04-06T03:07:19;12.53;;;9.97;;
8889;SDS011;4481;43.406;24.454;2023-04-06T03:09:45;9.77;;;8.20;;
8889;SDS011;4481;43.406;24.454;2023-04-06T03:12:12;12.60;;;9.57;;
8889;SDS011;4481;43.406;24.454;2023-04-06T03:14:38;14.70;;;9.77;;
8889;SDS011;4481;43.406;24.454;2023-04-06T03:17:04;12.63;;;9.87;;
8889;SDS011;4481;43.406;24.454;2023-04-06T03:19:30;10.00;;;8.83;;
8889;SDS011;4481;43.406;24.454;2023-04-06T03:21:57;11.87;;;8.70;;
8889;SDS011;4481;43.406;24.454;2023-04-06T03:24:23;12.57;;;8.27;;
8889;SDS011;4481;43.406;24.454;2023-04-06T03:26:50;13.07;;;9.43;;
8889;SDS011;4481;43.406;24.454;2023-04-06T03:29:16;10.70;;;8.33;;
8889;SDS011;4481;43.406;24.454;2023-04-06T03:31:42;13.23;;;9.57;;
8889;SDS011;4481;43.406;24.454;2023-04-06T03:34:08;9.87;;;8.87;;
8889;SDS011;4481;43.406;24.454;2023-04-06T03:36:35;10.57;;;8.73;;
8889;SDS011;4481;43.406;24.454;2023-04-06T03:39:02;11.70;;;8.90;;
8889;SDS011;4481;43.406;24.454;2023-04-06T03:41:29;10.23;;;8.97;;
8889;SDS011;4481;43.406;24.454;2023-04-06T03:43:55;12.47;;;8.83;;
8889;SDS011;4481;43.406;24.454;2023-04-06T03:46:21;15.47;;;8.77;;
8889;SDS011;4481;43.406;24.454;2023-04-06T03:48:48;10.37;;;7.80;;
8889;SDS011;4481;43.406;24.454;2023-04-06T03:51:14;12.67;;;8.37;;
8889;SDS011;4481;43.406;24.454;2023-04-06T03:53:41;12.60;;;8.83;;
8889;SDS011;4481;43.406;24.454;2023-04-06T03:56:08;11.57;;;8.33;;
8889;SDS011;4481;43.406;24.454;2023-04-06T03:58:34;12.30;;;8.73;;
8889;SDS011;4481;43.406;24.454;2023-04-06T04:01:01;11.97;;;9.40;;
8889;SDS011;4481;43.406;24.454;2023-04-06T04:03:27;15.90;;;9.03;;
8889;SDS011;4481;43.406;24.454;2023-04-06T04:05:53;10.73;;;8.67;;
8889;SDS011;4481;43.406;24.454;2023-04-06T04:08:20;8.30;;;7.30;;
8889;SDS011;4481;43.406;24.454;2023-04-06T04:10:46;11.23;;;8.27;;
8889;SDS011;4481;43.406;24.454;2023-04-06T04:13:13;10.27;;;8.10;;
8889;SDS011;4481;43.406;24.454;2023-04-06T04:15:40;11.67;;;9.10;;
8889;SDS011;4481;43.406;24.454;2023-04-06T04:18:06;13.93;;;8.30;;
8889;SDS011;4481;43.406;24.454;2023-04-06T04:20:32;11.47;;;9.10;;
8889;SDS011;4481;43.406;24.454;2023-04-06T04:22:59;9.80;;;8.20;;
8889;SDS011;4481;43.406;24.454;2023-04-06T04:25:25;9.60;;;7.97;;
8889;SDS011;4481;43.406;24.454;2023-04-06T04:27:51;12.23;;;9.10;;
8889;SDS011;4481;43.406;24.454;2023-04-06T04:30:18;10.20;;;7.90;;
8889;SDS011;4481;43.406;24.454;2023-04-06T04:32:44;13.60;;;8.63;;
8889;SDS011;4481;43.406;24.454;2023-04-06T04:35:11;9.63;;;6.93;;
8889;SDS011;4481;43.406;24.454;2023-04-06T04:37:38;10.83;;;8.43;;
8889;SDS011;4481;43.406;24.454;2023-04-06T04:40:05;13.57;;;9.00;;
8889;SDS011;4481;43.406;24.454;2023-04-06T04:42:32;11.30;;;8.83;;
8889;SDS011;4481;43.406;24.454;2023-04-06T04:44:59;9.60;;;7.63;;
8889;SDS011;4481;43.406;24.454;2023-04-06T04:47:26;12.37;;;8.20;;
8889;SDS011;4481;43.406;24.454;2023-04-06T04:49:52;10.87;;;7.80;;
8889;SDS011;4481;43.406;24.454;2023-04-06T04:52:18;15.93;;;7.87;;
8889;SDS011;4481;43.406;24.454;2023-04-06T04:54:44;12.47;;;8.37;;
8889;SDS011;4481;43.406;24.454;2023-04-06T04:57:12;10.60;;;7.87;;
8889;SDS011;4481;43.406;24.454;2023-04-06T04:59:38;10.13;;;8.07;;
8889;SDS011;4481;43.406;24.454;2023-04-06T05:02:07;10.23;;;8.10;;
8889;SDS011;4481;43.406;24.454;2023-04-06T05:04:35;8.37;;;6.83;;
8889;SDS011;4481;43.406;24.454;2023-04-06T05:07:02;11.50;;;7.33;;
8889;SDS011;4481;43.406;24.454;2023-04-06T05:09:29;8.50;;;6.40;;
8889;SDS011;4481;43.406;24.454;2023-04-06T05:11:56;10.13;;;7.77;;
8889;SDS011;4481;43.406;24.454;2023-04-06T05:14:22;11.77;;;8.43;;
8889;SDS011;4481;43.406;24.454;2023-04-06T05:16:49;10.73;;;8.20;;
8889;SDS011;4481;43.406;24.454;2023-04-06T05:19:15;10.07;;;7.50;;
8889;SDS011;4481;43.406;24.454;2023-04-06T05:21:44;13.50;;;7.37;;
8889;SDS011;4481;43.406;24.454;2023-04-06T05:24:10;11.13;;;7.27;;
8889;SDS011;4481;43.406;24.454;2023-04-06T05:26:37;11.17;;;7.83;;
8889;SDS011;4481;43.406;24.454;2023-04-06T05:29:03;11.00;;;7.80;;
8889;SDS011;4481;43.406;24.454;2023-04-06T05:31:29;11.70;;;7.63;;
8889;SDS011;4481;43.406;24.454;2023-04-06T05:33:58;11.17;;;7.87;;
8889;SDS011;4481;43.406;24.454;2023-04-06T05:36:24;9.50;;;7.63;;
8889;SDS011;4481;43.406;24.454;2023-04-06T05:38:52;8.23;;;7.03;;
8889;SDS011;4481;43.406;24.454;2023-04-06T05:41:20;9.00;;;7.33;;
8889;SDS011;4481;43.406;24.454;2023-04-06T05:43:46;11.43;;;8.70;;
8889;SDS011;4481;43.406;24.454;2023-04-06T05:46:12;10.70;;;8.00;;
8889;SDS011;4481;43.406;24.454;2023-04-06T05:48:39;11.77;;;8.00;;
8889;SDS011;4481;43.406;24.454;2023-04-06T05:51:05;10.40;;;7.67;;
8889;SDS011;4481;43.406;24.454;2023-04-06T05:53:31;10.97;;;8.97;;
8889;SDS011;4481;43.406;24.454;2023-04-06T05:56:01;8.53;;;7.33;;
8889;SDS011;4481;43.406;24.454;2023-04-06T05:58:27;11.17;;;8.97;;
8889;SDS011;4481;43.406;24.454;2023-04-06T06:00:56;12.47;;;7.80;;
8889;SDS011;4481;43.406;24.454;2023-04-06T06:03:23;15.00;;;10.77;;
8889;SDS011;4481;43.406;24.454;2023-04-06T06:05:50;10.07;;;8.23;;
8889;SDS011;4481;43.406;24.454;2023-04-06T06:08:17;27.40;;;19.80;;
8889;SDS011;4481;43.406;24.454;2023-04-06T06:10:43;10.87;;;9.03;;
8889;SDS011;4481;43.406;24.454;2023-04-06T06:13:10;11.07;;;9.13;;
8889;SDS011;4481;43.406;24.454;2023-04-06T06:15:36;9.70;;;8.37;;
8889;SDS011;4481;43.406;24.454;2023-04-06T06:18:03;13.80;;;9.63;;
8889;SDS011;4481;43.406;24.454;2023-04-06T06:20:29;10.43;;;7.87;;
8889;SDS011;4481;43.406;24.454;2023-04-06T06:22:56;11.27;;;8.73;;
8889;SDS011;4481;43.406;24.454;2023-04-06T06:25:22;10.43;;;8.30;;
8889;SDS011;4481;43.406;24.454;2023-04-06T06:27:49;12.87;;;8.43;;
8889;SDS011;4481;43.406;24.454;2023-04-06T06:30:16;9.40;;;7.43;;
8889;SDS011;4481;43.406;24.454;2023-04-06T06:32:42;10.60;;;8.07;;
8889;SDS011;4481;43.406;24.454;2023-04-06T06:35:08;14.93;;;7.97;;
8889;SDS011;4481;43.406;24.454;2023-04-06T06:37:35;11.80;;;7.97;;
8889;SDS011;4481;43.406;24.454;2023-04-06T06:40:01;8.40;;;6.40;;
8889;SDS011;4481;43.406;24.454;2023-04-06T06:42:27;12.83;;;7.77;;
8889;SDS011;4481;43.406;24.454;2023-04-06T06:44:54;11.53;;;8.10;;
8889;SDS011;4481;43.406;24.454;2023-04-06T06:47:21;10.17;;;8.10;;
8889;SDS011;4481;43.406;24.454;2023-04-06T06:49:47;10.13;;;7.80;;
8889;SDS011;4481;43.406;24.454;2023-04-06T06:52:15;13.03;;;9.67;;
8889;SDS011;4481;43.406;24.454;2023-04-06T06:54:42;9.43;;;7.77;;
8889;SDS011;4481;43.406;24.454;2023-04-06T06:57:08;9.60;;;7.43;;
8889;SDS011;4481;43.406;24.454;2023-04-06T06:59:35;11.87;;;7.73;;
8889;SDS011;4481;43.406;24.454;2023-04-06T07:02:01;10.63;;;8.23;;
8889;SDS011;4481;43.406;24.454;2023-04-06T07:04:28;11.17;;;8.07;;
8889;SDS011;4481;43.406;24.454;2023-04-06T07:06:54;11.60;;;9.57;;
8889;SDS011;4481;43.406;24.454;2023-04-06T07:09:20;10.23;;;7.50;;
8889;SDS011;4481;43.406;24.454;2023-04-06T07:11:47;14.67;;;7.87;;
8889;SDS011;4481;43.406;24.454;2023-04-06T07:14:14;11.80;;;8.27;;
8889;SDS011;4481;43.406;24.454;2023-04-06T07:16:41;9.93;;;7.97;;
8889;SDS011;4481;43.406;24.454;2023-04-06T07:19:09;14.20;;;7.23;;
8889;SDS011;4481;43.406;24.454;2023-04-06T07:21:36;9.87;;;7.83;;
8889;SDS011;4481;43.406;24.454;2023-04-06T07:24:02;10.00;;;7.97;;
8889;SDS011;4481;43.406;24.454;2023-04-06T07:26:29;9.40;;;8.10;;
8889;SDS011;4481;43.406;24.454;2023-04-06T07:28:55;8.50;;;7.60;;
8889;SDS011;4481;43.406;24.454;2023-04-06T07:31:22;10.27;;;7.00;;
8889;SDS011;4481;43.406;24.454;2023-04-06T07:33:48;8.67;;;6.10;;
8889;SDS011;4481;43.406;24.454;2023-04-06T07:36:15;9.50;;;7.20;;
8889;SDS011;4481;43.406;24.454;2023-04-06T07:38:42;10.47;;;7.57;;
8889;SDS011;4481;43.406;24.454;2023-04-06T07:41:08;9.80;;;8.03;;
8889;SDS011;4481;43.406;24.454;2023-04-06T07:43:34;10.67;;;7.73;;
8889;SDS011;4481;43.406;24.454;2023-04-06T07:46:00;8.77;;;7.50;;
8889;SDS011;4481;43.406;24.454;2023-04-06T07:48:27;7.87;;;6.57;;
8889;SDS011;4481;43.406;24.454;2023-04-06T07:51:00;9.07;;;7.23;;
8889;SDS011;4481;43.406;24.454;2023-04-06T07:53:27;9.40;;;7.30;;
8889;SDS011;4481;43.406;24.454;2023-04-06T07:55:54;10.73;;;8.07;;
8889;SDS011;4481;43.406;24.454;2023-04-06T07:58:21;11.60;;;8.07;;
8889;SDS011;4481;43.406;24.454;2023-04-06T08:00:47;9.57;;;7.03;;
8889;SDS011;4481;43.406;24.454;2023-04-06T08:03:13;9.30;;;7.17;;
8889;SDS011;4481;43.406;24.454;2023-04-06T08:05:39;17.43;;;6.90;;
8889;SDS011;4481;43.406;24.454;2023-04-06T08:08:05;7.67;;;6.73;;
8889;SDS011;4481;43.406;24.454;2023-04-06T08:10:32;8.53;;;6.37;;
8889;SDS011;4481;43.406;24.454;2023-04-06T08:13:00;9.20;;;7.47;;
8889;SDS011;4481;43.406;24.454;2023-04-06T08:15:26;12.03;;;6.40;;
8889;SDS011;4481;43.406;24.454;2023-04-06T08:17:53;7.30;;;6.03;;
8889;SDS011;4481;43.406;24.454;2023-04-06T08:20:22;9.23;;;6.70;;
8889;SDS011;4481;43.406;24.454;2023-04-06T08:22:48;8.67;;;6.40;;
8889;SDS011;4481;43.406;24.454;2023-04-06T08:25:14;7.33;;;6.33;;
8889;SDS011;4481;43.406;24.454;2023-04-06T08:27:41;10.00;;;6.63;;
8889;SDS011;4481;43.406;24.454;2023-04-06T08:30:08;8.67;;;6.50;;
8889;SDS011;4481;43.406;24.454;2023-04-06T08:32:36;7.00;;;6.17;;
8889;SDS011;4481;43.406;24.454;2023-04-06T08:35:02;7.23;;;6.43;;
8889;SDS011;4481;43.406;24.454;2023-04-06T08:37:29;7.27;;;6.43;;
8889;SDS011;4481;43.406;24.454;2023-04-06T08:39:55;6.83;;;6.00;;
8889;SDS011;4481;43.406;24.454;2023-04-06T08:42:25;7.30;;;6.20;;
8889;SDS011;4481;43.406;24.454;2023-04-06T08:44:51;7.07;;;5.90;;
8889;SDS011;4481;43.406;24.454;2023-04-06T08:47:20;8.57;;;5.60;;
8889;SDS011;4481;43.406;24.454;2023-04-06T08:49:46;7.20;;;6.50;;
8889;SDS011;4481;43.406;24.454;2023-04-06T08:52:13;8.73;;;6.17;;
8889;SDS011;4481;43.406;24.454;2023-04-06T08:54:42;7.23;;;6.20;;
8889;SDS011;4481;43.406;24.454;2023-04-06T08:57:08;9.23;;;6.00;;
8889;SDS011;4481;43.406;24.454;2023-04-06T08:59:35;7.10;;;5.63;;
8889;SDS011;4481;43.406;24.454;2023-04-06T09:02:03;8.33;;;5.83;;
8889;SDS011;4481;43.406;24.454;2023-04-06T09:04:31;6.93;;;5.60;;
8889;SDS011;4481;43.406;24.454;2023-04-06T09:06:58;7.37;;;5.80;;
8889;SDS011;4481;43.406;24.454;2023-04-06T09:09:24;6.47;;;4.80;;
8889;SDS011;4481;43.406;24.454;2023-04-06T09:11:52;8.87;;;6.10;;
8889;SDS011;4481;43.406;24.454;2023-04-06T09:14:32;8.17;;;6.03;;
8889;SDS011;4481;43.406;24.454;2023-04-06T09:16:59;7.73;;;6.27;;
8889;SDS011;4481;43.406;24.454;2023-04-06T09:19:26;6.10;;;5.50;;
8889;SDS011;4481;43.406;24.454;2023-04-06T09:22:01;6.73;;;5.40;;
8889;SDS011;4481;43.406;24.454;2023-04-06T09:24:39;6.20;;;5.13;;
8889;SDS011;4481;43.406;24.454;2023-04-06T09:27:06;10.70;;;5.20;;
8889;SDS011;4481;43.406;24.454;2023-04-06T09:29:32;10.03;;;5.73;;
8889;SDS011;4481;43.406;24.454;2023-04-06T09:32:03;5.97;;;5.00;;
8889;SDS011;4481;43.406;24.454;2023-04-06T09:34:30;7.83;;;4.50;;
8889;SDS011;4481;43.406;24.454;2023-04-06T09:36:57;6.17;;;4.87;;
8889;SDS011;4481;43.406;24.454;2023-04-06T09:39:24;6.80;;;5.33;;
8889;SDS011;4481;43.406;24.454;2023-04-06T09:41:51;7.40;;;5.37;;
8889;SDS011;4481;43.406;24.454;2023-04-06T09:44:19;5.77;;;4.70;;
8889;SDS011;4481;43.406;24.454;2023-04-06T09:46:46;6.73;;;5.13;;
8889;SDS011;4481;43.406;24.454;2023-04-06T09:49:13;19.80;;;13.33;;
8889;SDS011;4481;43.406;24.454;2023-04-06T09:51:40;6.70;;;6.00;;
8889;SDS011;4481;43.406;24.454;2023-04-06T09:54:07;5.53;;;4.97;;
8889;SDS011;4481;43.406;24.454;2023-04-06T09:56:37;7.70;;;5.00;;
8889;SDS011;4481;43.406;24.454;2023-04-06T09:59:08;6.90;;;4.90;;
8889;SDS011;4481;43.406;24.454;2023-04-06T10:01:38;5.90;;;5.17;;
8889;SDS011;4481;43.406;24.454;2023-04-06T10:04:07;8.83;;;4.97;;
8889;SDS011;4481;43.406;24.454;2023-04-06T10:06:43;8.40;;;6.47;;
8889;SDS011;4481;43.406;24.454;2023-04-06T10:09:13;9.43;;;6.27;;
8889;SDS011;4481;43.406;24.454;2023-04-06T10:11:41;7.07;;;5.13;;
8889;SDS011;4481;43.406;24.454;2023-04-06T10:14:08;6.00;;;5.20;;
8889;SDS011;4481;43.406;24.454;2023-04-06T10:16:36;8.47;;;5.30;;
8889;SDS011;4481;43.406;24.454;2023-04-06T10:19:04;6.60;;;4.80;;
8889;SDS011;4481;43.406;24.454;2023-04-06T10:21:36;8.27;;;4.90;;
8889;SDS011;4481;43.406;24.454;2023-04-06T10:24:06;9.10;;;4.77;;
8889;SDS011;4481;43.406;24.454;2023-04-06T10:26:35;6.63;;;4.77;;
8889;SDS011;4481;43.406;24.454;2023-04-06T10:29:03;7.30;;;5.03;;
8889;SDS011;4481;43.406;24.454;2023-04-06T10:31:30;4.90;;;4.47;;
8889;SDS011;4481;43.406;24.454;2023-04-06T10:33:56;7.30;;;4.80;;
8889;SDS011;4481;43.406;24.454;2023-04-06T10:36:24;9.17;;;5.13;;
8889;SDS011;4481;43.406;24.454;2023-04-06T10:38:56;10.07;;;5.17;;
8889;SDS011;4481;43.406;24.454;2023-04-06T10:41:23;6.57;;;5.23;;
8889;SDS011;4481;43.406;24.454;2023-04-06T10:43:57;7.80;;;4.67;;
8889;SDS011;4481;43.406;24.454;2023-04-06T10:46:27;8.03;;;4.77;;
8889;SDS011;4481;43.406;24.454;2023-04-06T10:48:55;9.90;;;4.87;;
8889;SDS011;4481;43.406;24.454;2023-04-06T10:51:24;5.33;;;4.67;;
8889;SDS011;4481;43.406;24.454;2023-04-06T10:53:52;6.03;;;4.53;;
8889;SDS011;4481;43.406;24.454;2023-04-06T10:56:21;6.93;;;4.53;;
8889;SDS011;4481;43.406;24.454;2023-04-06T10:58:48;5.33;;;4.80;;
8889;SDS011;4481;43.406;24.454;2023-04-06T11:01:17;5.80;;;4.87;;
8889;SDS011;4481;43.406;24.454;2023-04-06T11:03:45;5.00;;;4.50;;
8889;SDS011;4481;43.406;24.454;2023-04-06T11:06:17;5.90;;;4.90;;
8889;SDS011;4481;43.406;24.454;2023-04-06T11:08:44;7.93;;;4.73;;
8889;SDS011;4481;43.406;24.454;2023-04-06T11:11:11;7.33;;;4.97;;
8889;SDS011;4481;43.406;24.454;2023-04-06T11:13:40;6.57;;;4.87;;
8889;SDS011;4481;43.406;24.454;2023-04-06T11:16:12;7.07;;;5.20;;
8889;SDS011;4481;43.406;24.454;2023-04-06T11:18:46;6.83;;;4.93;;
8889;SDS011;4481;43.406;24.454;2023-04-06T11:21:14;7.83;;;5.03;;
8889;SDS011;4481;43.406;24.454;2023-04-06T11:23:40;5.53;;;4.97;;
8889;SDS011;4481;43.406;24.454;2023-04-06T11:26:09;5.37;;;4.20;;
8889;SDS011;4481;43.406;24.454;2023-04-06T11:28:36;5.97;;;3.97;;
8889;SDS011;4481;43.406;24.454;2023-04-06T11:31:03;12.43;;;5.07;;
8889;SDS011;4481;43.406;24.454;2023-04-06T11:33:34;6.23;;;4.30;;
8889;SDS011;4481;43.406;24.454;2023-04-06T11:36:02;9.00;;;4.80;;
8889;SDS011;4481;43.406;24.454;2023-04-06T11:38:29;4.53;;;4.13;;
8889;SDS011;4481;43.406;24.454;2023-04-06T11:40:55;6.20;;;4.47;;
8889;SDS011;4481;43.406;24.454;2023-04-06T11:43:25;6.60;;;4.70;;
8889;SDS011;4481;43.406;24.454;2023-04-06T11:45:52;6.83;;;4.77;;
8889;SDS011;4481;43.406;24.454;2023-04-06T11:48:26;9.60;;;5.00;;
8889;SDS011;4481;43.406;24.454;2023-04-06T11:50:55;5.37;;;4.27;;
8889;SDS011;4481;43.406;24.454;2023-04-06T11:53:22;6.10;;;4.33;;
8889;SDS011;4481;43.406;24.454;2023-04-06T11:55:49;5.17;;;4.13;;
8889;SDS011;4481;43.406;24.454;2023-04-06T11:58:15;4.93;;;4.13;;
8889;SDS011;4481;43.406;24.454;2023-04-06T12:00:42;5.53;;;4.20;;
8889;SDS011;4481;43.406;24.454;2023-04-06T12:03:10;5.57;;;3.80;;
8889;SDS011;4481;43.406;24.454;2023-04-06T12:05:36;6.50;;;4.20;;
8889;SDS011;4481;43.406;24.454;2023-04-06T12:08:03;5.40;;;3.80;;
8889;SDS011;4481;43.406;24.454;2023-04-06T12:10:30;4.63;;;4.10;;
8889;SDS011;4481;43.406;24.454;2023-04-06T12:12:56;7.90;;;4.47;;
8889;SDS011;4481;43.406;24.454;2023-04-06T12:15:22;7.80;;;4.57;;
8889;SDS011;4481;43.406;24.454;2023-04-06T12:17:49;6.33;;;4.60;;
8889;SDS011;4481;43.406;24.454;2023-04-06T12:20:15;6.73;;;3.97;;
8889;SDS011;4481;43.406;24.454;2023-04-06T12:22:41;6.20;;;4.33;;
8889;SDS011;4481;43.406;24.454;2023-04-06T12:25:08;9.07;;;5.10;;
8889;SDS011;4481;43.406;24.454;2023-04-06T12:27:35;6.83;;;4.93;;
8889;SDS011;4481;43.406;24.454;2023-04-06T12:30:01;8.83;;;5.47;;
8889;SDS011;4481;43.406;24.454;2023-04-06T12:32:28;5.57;;;4.47;;
8889;SDS011;4481;43.406;24.454;2023-04-06T12:34:54;5.50;;;4.57;;
8889;SDS011;4481;43.406;24.454;2023-04-06T12:37:20;5.47;;;4.23;;
8889;SDS011;4481;43.406;24.454;2023-04-06T12:39:46;5.73;;;4.70;;
8889;SDS011;4481;43.406;24.454;2023-04-06T12:42:13;8.10;;;5.53;;
8889;SDS011;4481;43.406;24.454;2023-04-06T12:44:39;6.03;;;4.00;;
8889;SDS011;4481;43.406;24.454;2023-04-06T12:47:07;4.87;;;4.07;;
8889;SDS011;4481;43.406;24.454;2023-04-06T12:49:34;6.30;;;4.37;;
8889;SDS011;4481;43.406;24.454;2023-04-06T12:52:01;6.80;;;3.63;;
8889;SDS011;4481;43.406;24.454;2023-04-06T12:54:28;9.60;;;4.60;;
8889;SDS011;4481;43.406;24.454;2023-04-06T12:56:54;8.60;;;4.37;;
8889;SDS011;4481;43.406;24.454;2023-04-06T12:59:21;4.83;;;4.03;;
8889;SDS011;4481;43.406;24.454;2023-04-06T13:01:50;5.57;;;3.77;;
8889;SDS011;4481;43.406;24.454;2023-04-06T13:04:17;6.50;;;4.57;;
8889;SDS011;4481;43.406;24.454;2023-04-06T13:06:43;5.23;;;4.07;;
8889;SDS011;4481;43.406;24.454;2023-04-06T13:09:10;6.10;;;4.10;;
8889;SDS011;4481;43.406;24.454;2023-04-06T13:11:36;4.63;;;3.87;;
8889;SDS011;4481;43.406;24.454;2023-04-06T13:14:02;5.40;;;4.23;;
8889;SDS011;4481;43.406;24.454;2023-04-06T13:16:29;5.27;;;4.03;;
8889;SDS011;4481;43.406;24.454;2023-04-06T13:18:56;6.37;;;4.17;;
8889;SDS011;4481;43.406;24.454;2023-04-06T13:21:22;7.50;;;4.80;;
8889;SDS011;4481;43.406;24.454;2023-04-06T13:23:48;4.93;;;3.80;;
8889;SDS011;4481;43.406;24.454;2023-04-06T13:26:15;4.77;;;4.07;;
8889;SDS011;4481;43.406;24.454;2023-04-06T13:28:41;7.67;;;4.20;;
8889;SDS011;4481;43.406;24.454;2023-04-06T13:31:08;6.37;;;4.20;;
8889;SDS011;4481;43.406;24.454;2023-04-06T13:33:35;4.10;;;3.70;;
8889;SDS011;4481;43.406;24.454;2023-04-06T13:36:02;5.23;;;4.10;;
8889;SDS011;4481;43.406;24.454;2023-04-06T13:38:29;4.57;;;3.93;;
8889;SDS011;4481;43.406;24.454;2023-04-06T13:40:55;8.90;;;5.63;;
8889;SDS011;4481;43.406;24.454;2023-04-06T13:43:21;4.83;;;4.33;;
8889;SDS011;4481;43.406;24.454;2023-04-06T13:45:51;5.60;;;4.50;;
8889;SDS011;4481;43.406;24.454;2023-04-06T13:48:19;7.20;;;4.60;;
8889;SDS011;4481;43.406;24.454;2023-04-06T13:50:45;7.47;;;4.87;;
8889;SDS011;4481;43.406;24.454;2023-04-06T13:53:12;5.53;;;4.73;;
8889;SDS011;4481;43.406;24.454;2023-04-06T13:55:38;7.50;;;4.13;;
8889;SDS011;4481;43.406;24.454;2023-04-06T13:58:05;5.70;;;4.27;;
8889;SDS011;4481;43.406;24.454;2023-04-06T14:00:31;10.53;;;4.10;;
8889;SDS011;4481;43.406;24.454;2023-04-06T14:02:57;5.73;;;4.47;;
8889;SDS011;4481;43.406;24.454;2023-04-06T14:05:23;10.17;;;5.10;;
8889;SDS011;4481;43.406;24.454;2023-04-06T14:07:49;4.87;;;4.37;;
8889;SDS011;4481;43.406;24.454;2023-04-06T14:10:16;6.90;;;4.97;;
8889;SDS011;4481;43.406;24.454;2023-04-06T14:12:43;6.63;;;5.20;;
8889;SDS011;4481;43.406;24.454;2023-04-06T14:15:10;8.23;;;5.13;;
8889;SDS011;4481;43.406;24.454;2023-04-06T14:17:37;7.67;;;5.60;;
8889;SDS011;4481;43.406;24.454;2023-04-06T14:20:03;6.10;;;5.13;;
8889;SDS011;4481;43.406;24.454;2023-04-06T14:22:31;9.13;;;5.53;;
8889;SDS011;4481;43.406;24.454;2023-04-06T14:24:57;8.23;;;5.47;;
8889;SDS011;4481;43.406;24.454;2023-04-06T14:27:24;10.63;;;5.27;;
8889;SDS011;4481;43.406;24.454;2023-04-06T14:29:50;8.53;;;6.20;;
8889;SDS011;4481;43.406;24.454;2023-04-06T14:32:17;6.67;;;5.60;;
8889;SDS011;4481;43.406;24.454;2023-04-06T14:34:46;7.13;;;6.37;;
8889;SDS011;4481;43.406;24.454;2023-04-06T14:37:12;7.33;;;6.00;;
8889;SDS011;4481;43.406;24.454;2023-04-06T14:39:38;7.43;;;6.27;;
8889;SDS011;4481;43.406;24.454;2023-04-06T14:42:05;8.20;;;6.77;;
8889;SDS011;4481;43.406;24.454;2023-04-06T14:44:33;8.63;;;7.20;;
8889;SDS011;4481;43.406;24.454;2023-04-06T14:47:01;9.40;;;7.73;;
8889;SDS011;4481;43.406;24.454;2023-04-06T14:49:28;11.80;;;8.43;;
8889;SDS011;4481;43.406;24.454;2023-04-06T14:51:54;10.37;;;7.47;;
8889;SDS011;4481;43.406;24.454;2023-04-06T14:54:21;12.77;;;7.43;;